createdAt,value
2023-01-17T00:03:27.921Z,6.95
2023-01-17T00:13:29.881Z,5.50
2023-01-17T00:23:31.814Z,7.82
2023-01-17T00:33:34.183Z,5.38
2023-01-17T00:43:36.439Z,6.43
2023-01-17T00:53:38.426Z,6.55
2023-01-17T01:03:40.278Z,5.75
2023-01-17T01:13:42.188Z,4.50
2023-01-17T01:23:44.039Z,8.35
2023-01-17T01:33:47.842Z,5.35
2023-01-17T01:43:54.826Z,3.10
2023-01-17T01:54:09.567Z,5.15
2023-01-17T02:04:12.837Z,4.63
2023-01-17T02:14:20.049Z,2.92
2023-01-17T02:24:30.981Z,4.10
2023-01-17T02:35:12.147Z,2.88
2023-01-17T02:45:18.718Z,4.15
2023-01-17T02:55:38.949Z,2.35
2023-01-17T03:05:49.902Z,3.13
2023-01-17T03:15:51.843Z,3.00
2023-01-17T03:25:59.832Z,4.28
2023-01-17T03:36:05.354Z,10.18
2023-01-17T03:46:17.429Z,4.50
2023-01-17T03:56:24.732Z,7.60
2023-01-17T04:06:26.639Z,9.80
2023-01-17T04:16:30.640Z,9.73
2023-01-17T04:26:32.475Z,8.27
2023-01-17T04:36:36.147Z,10.70
2023-01-17T04:46:37.975Z,11.55
2023-01-17T04:56:39.810Z,9.07
2023-01-17T05:06:41.681Z,12.75
2023-01-17T05:16:43.754Z,11.20
2023-01-17T05:26:46.210Z,10.98
2023-01-17T05:36:48.147Z,17.20
2023-01-17T05:46:50.023Z,16.63
2023-01-17T05:56:51.912Z,17.73
2023-01-17T06:06:53.743Z,12.20
2023-01-17T06:16:55.663Z,8.63
2023-01-17T06:26:58.048Z,14.75
2023-01-17T06:37:00.006Z,10.35
2023-01-17T06:47:01.873Z,12.15
2023-01-17T06:57:03.838Z,10.50
2023-01-17T07:07:05.693Z,10.10
2023-01-17T07:17:07.542Z,13.40
2023-01-17T07:27:09.403Z,11.43
2023-01-17T07:37:15.011Z,7.72
2023-01-17T07:47:17.094Z,7.35
2023-01-17T07:57:19.301Z,9.55
2023-01-17T08:07:21.299Z,7.78
2023-01-17T08:17:28.592Z,10.00
2023-01-17T08:27:30.424Z,13.38
2023-01-17T08:37:32.441Z,10.75
2023-01-17T08:47:35.059Z,10.88
2023-01-17T08:57:36.915Z,11.73
2023-01-17T09:07:39.457Z,9.00
2023-01-17T09:17:41.406Z,9.60
2023-01-17T09:27:47.055Z,8.20
2023-01-17T09:37:50.420Z,8.05
2023-01-17T09:47:54.554Z,7.60
2023-01-17T09:58:01.165Z,6.03
2023-01-17T10:08:24.613Z,4.28
2023-01-17T10:19:04.203Z,6.28
2023-01-17T10:29:16.588Z,5.43
2023-01-17T10:39:24.553Z,5.15
2023-01-17T10:49:28.034Z,5.85
2023-01-17T10:59:34.822Z,4.75
2023-01-17T11:09:45.572Z,5.03
2023-01-17T11:19:47.597Z,7.15
2023-01-17T11:30:04.441Z,5.22
2023-01-17T11:40:08.591Z,4.30
2023-01-17T11:50:27.277Z,4.88
2023-01-17T12:00:41.204Z,6.20
2023-01-17T12:10:51.969Z,5.65
2023-01-17T12:21:02.691Z,4.50
2023-01-17T12:31:07.577Z,5.30
2023-01-17T12:41:16.231Z,5.20
2023-01-17T12:51:39.195Z,4.97
2023-01-17T13:01:48.839Z,2.90
2023-01-17T13:12:00.269Z,2.33
2023-01-17T13:22:07.838Z,4.15
2023-01-17T13:32:49.215Z,3.55
2023-01-17T13:43:02.535Z,2.97
2023-01-17T13:53:27.312Z,6.13
2023-01-17T14:03:51.081Z,4.63
2023-01-17T14:13:52.979Z,3.53
2023-01-17T14:24:02.573Z,4.63
2023-01-17T14:34:21.418Z,3.88
2023-01-17T14:44:23.285Z,4.72
2023-01-17T14:54:25.080Z,6.00
2023-01-17T15:04:29.159Z,9.05
2023-01-17T15:14:38.058Z,8.45
2023-01-17T15:24:44.423Z,11.00
2023-01-17T15:34:48.995Z,10.65
2023-01-17T15:55:45.499Z,15.15
2023-01-17T16:05:48.367Z,20.40
2023-01-17T16:15:50.511Z,19.65
2023-01-17T16:25:52.436Z,19.77
2023-01-17T16:35:54.510Z,17.95
2023-01-17T16:45:56.487Z,16.88
2023-01-17T16:56:05.631Z,20.25
2023-01-17T17:06:08.102Z,25.13
2023-01-17T17:16:15.026Z,30.52
2023-01-17T17:26:17.106Z,73.07
2023-01-17T17:36:19.160Z,63.45
2023-01-17T17:46:24.102Z,35.85
2023-01-17T17:56:26.475Z,34.65
2023-01-17T18:06:28.601Z,20.95
2023-01-17T18:16:33.410Z,22.35
2023-01-17T18:26:41.775Z,21.25
2023-01-17T18:36:44.198Z,35.38
2023-01-17T18:46:47.311Z,28.92
2023-01-17T18:56:50.114Z,34.78
2023-01-17T19:06:53.948Z,45.45
2023-01-17T19:16:55.828Z,65.70
2023-01-17T19:26:57.745Z,82.47
2023-01-17T19:36:59.584Z,65.47
2023-01-17T19:47:01.577Z,28.30
2023-01-17T19:57:03.468Z,28.73
2023-01-17T20:07:05.433Z,51.80
2023-01-17T20:17:07.294Z,33.53
2023-01-17T20:27:09.182Z,25.08
2023-01-17T20:37:11.078Z,27.27
2023-01-17T20:47:12.923Z,26.85
2023-01-17T20:57:14.801Z,25.00
2023-01-17T21:07:17.527Z,28.25
2023-01-17T21:17:19.397Z,26.70
2023-01-17T21:27:21.301Z,24.52
2023-01-17T21:37:23.105Z,25.30
2023-01-17T21:47:24.957Z,26.90
2023-01-17T21:57:26.917Z,21.83
2023-01-17T22:07:28.770Z,21.65
2023-01-17T22:17:30.686Z,27.13
2023-01-17T22:27:32.659Z,25.77
2023-01-17T22:37:34.482Z,25.25
2023-01-17T22:47:36.764Z,25.63
2023-01-17T22:57:38.632Z,27.05
2023-01-17T23:07:40.547Z,29.92
2023-01-17T23:17:42.523Z,25.70
2023-01-17T23:27:46.657Z,30.70
2023-01-17T23:37:48.911Z,25.95
2023-01-17T23:47:50.709Z,36.38
2023-01-17T23:57:52.488Z,40.97
